createdAt,value
2022-08-21T00:00:44.602Z,20.46
2022-08-21T00:04:57.111Z,20.46
2022-08-21T00:09:05.572Z,20.45
2022-08-21T00:13:11.700Z,20.43
2022-08-21T00:17:14.838Z,20.40
2022-08-21T00:21:18.275Z,20.35
2022-08-21T00:25:24.362Z,20.31
2022-08-21T00:29:31.078Z,20.29
2022-08-21T00:33:34.811Z,20.25
2022-08-21T00:37:37.920Z,20.24
2022-08-21T00:41:41.650Z,20.23
2022-08-21T00:45:46.456Z,20.20
2022-08-21T00:49:49.911Z,20.20
2022-08-21T00:53:58.028Z,20.20
2022-08-21T00:58:06.187Z,20.16
2022-08-21T01:02:14.441Z,20.16
2022-08-21T01:06:18.267Z,20.17
2022-08-21T01:10:24.391Z,20.19
2022-08-21T01:14:28.438Z,20.17
2022-08-21T01:18:33.199Z,20.21
2022-08-21T01:22:37.950Z,20.21
2022-08-21T01:26:41.915Z,20.23
2022-08-21T01:30:45.782Z,20.25
2022-08-21T01:34:51.935Z,20.26
2022-08-21T01:38:57.868Z,20.26
2022-08-21T01:43:01.177Z,20.28
2022-08-21T01:47:08.435Z,20.29
2022-08-21T01:51:12.769Z,20.32
2022-08-21T01:55:18.922Z,20.36
2022-08-21T01:59:23.796Z,20.38
2022-08-21T02:03:35.340Z,20.39
2022-08-21T02:07:40.743Z,20.42
2022-08-21T02:11:45.450Z,20.38
2022-08-21T02:15:49.015Z,20.37
2022-08-21T02:19:52.328Z,20.26
2022-08-21T02:23:55.638Z,20.21
2022-08-21T02:28:01.937Z,20.18
2022-08-21T02:32:05.583Z,20.17
2022-08-21T02:36:10.357Z,20.16
2022-08-21T02:40:14.206Z,20.15
2022-08-21T02:44:19.116Z,20.11
2022-08-21T02:48:25.207Z,20.08
2022-08-21T02:52:28.312Z,20.04
2022-08-21T02:56:31.538Z,20.02
2022-08-21T03:00:37.863Z,20.00
2022-08-21T03:04:45.996Z,19.98
2022-08-21T03:08:50.416Z,19.98
2022-08-21T03:12:53.975Z,19.93
2022-08-21T03:16:58.561Z,19.88
2022-08-21T03:21:01.718Z,19.84
2022-08-21T03:25:06.739Z,19.81
2022-08-21T03:29:10.173Z,19.78
2022-08-21T03:33:15.826Z,19.77
2022-08-21T03:37:19.697Z,19.76
2022-08-21T03:41:22.996Z,19.75
2022-08-21T03:45:26.143Z,19.77
2022-08-21T03:49:30.859Z,19.78
2022-08-21T03:53:35.043Z,19.79
2022-08-21T03:57:38.136Z,19.75
2022-08-21T04:01:42.187Z,19.75
2022-08-21T04:05:47.290Z,19.78
2022-08-21T04:09:50.592Z,19.79
2022-08-21T04:13:53.660Z,19.82
2022-08-21T04:17:57.090Z,19.88
2022-08-21T04:22:01.831Z,19.86
2022-08-21T04:26:07.196Z,19.85
2022-08-21T04:30:12.004Z,19.83
2022-08-21T04:34:15.216Z,19.85
2022-08-21T04:38:20.310Z,19.88
2022-08-21T04:42:23.582Z,19.85
2022-08-21T04:46:26.880Z,19.82
2022-08-21T04:50:33.311Z,19.82
2022-08-21T04:54:42.326Z,19.83
2022-08-21T04:58:45.652Z,19.85
2022-08-21T05:02:50.252Z,19.89
2022-08-21T05:06:55.881Z,19.94
2022-08-21T05:11:00.851Z,19.99
2022-08-21T05:15:04.744Z,20.05
2022-08-21T05:19:08.536Z,20.10
2022-08-21T05:23:14.666Z,20.22
2022-08-21T05:27:19.211Z,20.35
2022-08-21T05:31:23.491Z,20.48
2022-08-21T05:35:27.652Z,20.55
2022-08-21T05:40:21.804Z,20.61
2022-08-21T05:43:55.198Z,20.76
2022-08-21T05:47:58.367Z,20.87
2022-08-21T05:52:01.774Z,20.94
2022-08-21T05:56:06.123Z,20.96
2022-08-21T06:00:13.438Z,20.99
2022-08-21T06:04:17.275Z,20.99
2022-08-21T06:08:21.724Z,21.04
2022-08-21T06:12:25.952Z,21.04
2022-08-21T06:16:31.644Z,21.03
2022-08-21T06:20:35.039Z,20.99
2022-08-21T06:24:38.360Z,21.03
2022-08-21T06:28:42.460Z,21.04
2022-08-21T06:32:47.076Z,21.12
2022-08-21T06:36:50.099Z,21.18
2022-08-21T06:40:53.167Z,21.22
2022-08-21T06:44:56.790Z,21.25
2022-08-21T06:49:01.330Z,21.29
2022-08-21T06:53:07.642Z,21.32
2022-08-21T06:57:10.809Z,21.34
2022-08-21T07:01:14.021Z,21.41
2022-08-21T07:05:18.905Z,21.45
2022-08-21T07:09:24.701Z,21.41
2022-08-21T07:13:28.699Z,21.37
2022-08-21T07:17:31.953Z,21.35
2022-08-21T07:21:36.942Z,21.29
2022-08-21T07:25:40.701Z,21.33
2022-08-21T07:29:45.574Z,21.33
2022-08-21T07:33:49.251Z,21.34
2022-08-21T07:37:54.013Z,21.36
2022-08-21T07:41:57.355Z,21.38
2022-08-21T07:46:00.684Z,21.37
2022-08-21T07:50:03.790Z,21.37
2022-08-21T07:54:09.685Z,21.39
2022-08-21T07:58:20.136Z,21.41
2022-08-21T08:02:26.882Z,21.40
2022-08-21T08:06:30.485Z,21.34
2022-08-21T08:10:35.187Z,21.39
2022-08-21T08:14:38.334Z,21.49
2022-08-21T08:18:43.100Z,21.62
2022-08-21T08:22:50.024Z,21.69
2022-08-21T08:26:58.008Z,21.75
2022-08-21T08:31:02.125Z,21.84
2022-08-21T08:35:05.615Z,21.77
2022-08-21T08:39:08.750Z,21.72
2022-08-21T08:43:15.810Z,21.61
2022-08-21T08:47:20.645Z,21.59
2022-08-21T08:51:27.682Z,21.63
2022-08-21T08:55:35.524Z,21.63
2022-08-21T08:59:43.863Z,21.58
2022-08-21T09:03:50.699Z,21.56
2022-08-21T09:08:15.360Z,21.60
2022-08-21T09:12:41.794Z,21.71
2022-08-21T09:16:51.346Z,21.73
2022-08-21T09:21:10.659Z,21.72
2022-08-21T09:25:27.092Z,21.74
2022-08-21T09:29:33.919Z,21.77
2022-08-21T09:33:38.393Z,21.72
2022-08-21T09:37:52.763Z,21.65
2022-08-21T09:42:01.133Z,21.63
2022-08-21T09:46:08.896Z,21.54
2022-08-21T09:50:19.194Z,21.47
2022-08-21T09:54:33.598Z,21.46
2022-08-21T09:58:38.825Z,21.44
2022-08-21T10:02:41.915Z,21.42
2022-08-21T10:06:46.982Z,21.42
2022-08-21T10:10:56.427Z,21.40
2022-08-21T10:15:09.070Z,21.42
2022-08-21T10:19:24.899Z,21.42
2022-08-21T10:23:44.143Z,21.40
2022-08-21T10:27:59.515Z,21.39
2022-08-21T10:32:25.793Z,21.41
2022-08-21T10:36:39.183Z,21.42
2022-08-21T10:40:52.177Z,21.49
2022-08-21T10:45:06.497Z,21.62
2022-08-21T10:49:21.067Z,21.68
2022-08-21T10:53:37.802Z,21.77
2022-08-21T10:57:48.399Z,21.80
2022-08-21T11:01:59.647Z,21.79
2022-08-21T11:06:11.070Z,21.75
2022-08-21T11:10:20.260Z,21.76
2022-08-21T11:14:32.761Z,21.84
2022-08-21T11:18:39.875Z,21.86
2022-08-21T11:22:56.984Z,21.92
2022-08-21T11:27:08.474Z,22.02
2022-08-21T11:31:29.142Z,22.13
2022-08-21T11:35:39.869Z,22.24
2022-08-21T11:39:54.786Z,22.42
2022-08-21T11:44:11.160Z,22.58
2022-08-21T11:48:31.675Z,22.66
2022-08-21T11:52:40.992Z,22.75
2022-08-21T11:56:50.513Z,22.86
2022-08-21T12:00:58.271Z,23.02
2022-08-21T12:05:08.200Z,23.07
2022-08-21T12:09:28.226Z,23.12
2022-08-21T12:13:40.785Z,23.13
2022-08-21T12:17:56.361Z,23.07
2022-08-21T12:22:11.481Z,23.08
2022-08-21T12:26:36.996Z,23.08
2022-08-21T12:30:42.129Z,23.05
2022-08-21T12:34:51.521Z,23.03
2022-08-21T12:38:59.647Z,22.89
2022-08-21T12:43:04.947Z,22.75
2022-08-21T12:47:17.382Z,22.64
2022-08-21T12:51:26.574Z,22.49
2022-08-21T12:55:33.914Z,22.38
2022-08-21T12:59:40.618Z,22.29
2022-08-21T13:03:44.256Z,22.27
2022-08-21T13:07:49.976Z,22.28
2022-08-21T13:11:55.481Z,22.28
2022-08-21T13:16:00.720Z,22.28
2022-08-21T13:20:08.903Z,22.34
2022-08-21T13:24:41.329Z,22.35
2022-08-21T13:28:45.048Z,22.42
2022-08-21T13:32:52.645Z,22.52
2022-08-21T13:37:01.075Z,22.55
2022-08-21T13:41:09.486Z,22.61
2022-08-21T13:45:21.247Z,22.60
2022-08-21T13:49:31.405Z,22.57
2022-08-21T13:53:37.575Z,22.56
2022-08-21T13:57:41.196Z,22.66
2022-08-21T14:01:55.727Z,22.70
2022-08-21T14:06:00.219Z,22.82
2022-08-21T14:10:07.717Z,22.85
2022-08-21T14:14:22.316Z,22.87
2022-08-21T14:18:27.671Z,22.88
2022-08-21T14:22:34.895Z,22.93
2022-08-21T14:26:45.325Z,22.91
2022-08-21T14:30:51.345Z,22.97
2022-08-21T14:34:58.078Z,22.99
2022-08-21T14:39:02.824Z,22.97
2022-08-21T14:43:06.243Z,22.98
2022-08-21T14:47:10.301Z,22.98
2022-08-21T14:51:15.346Z,22.99
2022-08-21T14:55:20.423Z,22.97
2022-08-21T14:59:24.466Z,22.95
2022-08-21T15:03:28.178Z,22.87
2022-08-21T15:07:32.811Z,22.87
2022-08-21T15:11:42.339Z,22.88
2022-08-21T15:15:49.145Z,22.87
2022-08-21T15:19:52.236Z,22.86
2022-08-21T15:23:56.838Z,22.90
2022-08-21T15:28:00.592Z,22.88
2022-08-21T15:32:18.024Z,22.83
2022-08-21T15:36:21.764Z,22.80
2022-08-21T15:40:26.748Z,22.79
2022-08-21T15:44:31.224Z,22.80
2022-08-21T15:48:34.400Z,22.78
2022-08-21T15:52:38.199Z,22.75
2022-08-21T15:56:48.448Z,22.78
2022-08-21T16:00:51.959Z,22.78
2022-08-21T16:04:55.580Z,22.81
2022-08-21T16:08:58.871Z,22.79
2022-08-21T16:13:08.399Z,22.81
2022-08-21T16:17:11.750Z,22.81
2022-08-21T16:21:15.407Z,22.81
2022-08-21T16:25:19.200Z,22.80
2022-08-21T16:29:24.904Z,22.80
2022-08-21T16:33:33.534Z,22.80
2022-08-21T16:37:36.880Z,22.80
2022-08-21T16:41:40.635Z,22.79
2022-08-21T16:45:45.491Z,22.80
2022-08-21T16:49:51.000Z,22.90
2022-08-21T16:53:54.154Z,22.80
2022-08-21T16:57:58.106Z,22.78
2022-08-21T17:02:03.349Z,22.75
2022-08-21T17:06:11.640Z,22.77
2022-08-21T17:10:17.088Z,22.76
2022-08-21T17:14:22.665Z,22.73
2022-08-21T17:18:27.935Z,22.73
2022-08-21T17:22:31.093Z,22.73
2022-08-21T17:26:34.663Z,22.71
2022-08-21T17:30:42.856Z,22.65
2022-08-21T17:34:48.011Z,22.61
2022-08-21T17:38:51.968Z,22.61
2022-08-21T17:42:55.065Z,22.62
2022-08-21T17:46:58.412Z,22.61
2022-08-21T17:51:03.849Z,22.60
2022-08-21T17:55:07.913Z,22.60
2022-08-21T17:59:11.907Z,22.58
2022-08-21T18:03:18.185Z,22.49
2022-08-21T18:07:32.809Z,22.46
2022-08-21T18:11:37.968Z,22.43
2022-08-21T18:15:44.158Z,22.38
2022-08-21T18:19:49.176Z,22.38
2022-08-21T18:23:55.552Z,22.40
2022-08-21T18:28:08.765Z,22.36
2022-08-21T18:32:26.813Z,22.34
2022-08-21T18:36:35.087Z,22.33
2022-08-21T18:40:45.305Z,22.34
2022-08-21T18:44:50.836Z,22.31
2022-08-21T18:48:55.027Z,22.30
2022-08-21T18:52:59.223Z,22.31
2022-08-21T18:57:05.461Z,22.29
2022-08-21T19:01:08.938Z,22.28
2022-08-21T19:05:14.944Z,22.28
2022-08-21T19:09:20.202Z,22.26
2022-08-21T19:13:28.452Z,22.22
2022-08-21T19:17:31.994Z,22.22
2022-08-21T19:21:35.419Z,22.22
2022-08-21T19:25:41.933Z,22.22
2022-08-21T19:29:46.631Z,22.22
2022-08-21T19:33:55.091Z,22.21
2022-08-21T19:38:00.886Z,22.19
2022-08-21T19:42:04.052Z,22.11
2022-08-21T19:46:09.016Z,21.96
2022-08-21T19:50:18.092Z,21.83
2022-08-21T19:54:27.822Z,21.75
2022-08-21T19:58:36.373Z,21.71
2022-08-21T20:02:47.894Z,21.65
2022-08-21T20:06:51.535Z,21.62
2022-08-21T20:10:58.089Z,21.55
2022-08-21T20:15:03.282Z,21.45
2022-08-21T20:19:13.792Z,21.35
2022-08-21T20:23:18.450Z,21.30
2022-08-21T20:31:56.727Z,21.17
2022-08-21T20:36:01.465Z,21.03
2022-08-21T20:40:10.069Z,20.91
2022-08-21T20:44:14.874Z,20.84
2022-08-21T20:48:23.806Z,20.78
2022-08-21T20:52:28.779Z,20.67
2022-08-21T20:56:42.262Z,20.56
2022-08-21T21:00:46.044Z,20.47
2022-08-21T21:04:58.720Z,20.38
2022-08-21T21:09:10.774Z,20.30
2022-08-21T21:13:21.044Z,20.18
2022-08-21T21:17:29.438Z,20.06
2022-08-21T21:21:36.868Z,20.00
2022-08-21T21:25:53.942Z,19.96
2022-08-21T21:30:03.669Z,19.92
2022-08-21T21:34:08.926Z,19.92
2022-08-21T21:38:26.131Z,19.87
2022-08-21T21:42:55.594Z,19.79
2022-08-21T21:47:03.815Z,19.74
2022-08-21T21:51:15.764Z,19.71
2022-08-21T21:55:33.674Z,19.67
2022-08-21T21:59:54.906Z,19.61
2022-08-21T22:04:03.702Z,19.51
2022-08-21T22:08:15.192Z,19.45
2022-08-21T22:12:42.197Z,19.42
2022-08-21T22:16:54.849Z,19.41
2022-08-21T22:21:03.682Z,19.39
2022-08-21T22:25:16.586Z,19.36
2022-08-21T22:29:24.056Z,19.29
2022-08-21T22:33:30.500Z,19.23
2022-08-21T22:37:38.726Z,19.16
2022-08-21T22:41:44.656Z,19.10
2022-08-21T22:46:00.719Z,19.04
2022-08-21T22:50:08.447Z,19.03
2022-08-21T22:54:22.943Z,18.98
2022-08-21T22:58:29.426Z,18.98
2022-08-21T23:02:39.199Z,18.99
2022-08-21T23:06:46.654Z,19.02
2022-08-21T23:10:50.688Z,19.02
2022-08-21T23:14:54.928Z,18.99
2022-08-21T23:19:08.312Z,18.97
2022-08-21T23:23:23.407Z,18.95
2022-08-21T23:27:38.203Z,18.90
2022-08-21T23:31:47.894Z,18.86
2022-08-21T23:36:21.254Z,18.86
2022-08-21T23:49:49.497Z,18.63
2022-08-21T23:54:09.946Z,18.60
2022-08-21T23:58:28.982Z,18.57
